createdAt,value
2023-01-23T02:27:46.489Z,102193.96
2023-01-23T02:30:16.397Z,102205.41
2023-01-23T02:32:44.005Z,102185.88
2023-01-23T02:35:26.924Z,102182.35
2023-01-23T02:37:57.766Z,102182.07
2023-01-23T02:40:37.003Z,102181.23
2023-01-23T02:43:06.259Z,102181.85
2023-01-23T02:45:34.223Z,102180.95
2023-01-23T02:48:02.104Z,102179.45
2023-01-23T02:50:29.682Z,102180.66
2023-01-23T02:52:58.375Z,102180.52
2023-01-23T02:55:33.595Z,102183.48
2023-01-23T02:58:19.909Z,102184.47
2023-01-23T03:00:47.678Z,102182.52
2023-01-23T03:03:16.316Z,102180.85
2023-01-23T03:05:47.500Z,102181.77
2023-01-23T03:08:14.957Z,102181.99
2023-01-23T03:10:42.374Z,102181.00
2023-01-23T03:13:12.499Z,102184.92
2023-01-23T03:15:42.436Z,102185.25
2023-01-23T03:18:10.128Z,102179.85
2023-01-23T03:20:41.577Z,102180.30
2023-01-23T03:23:09.325Z,102182.69
2023-01-23T03:25:36.749Z,102183.56
2023-01-23T03:28:04.285Z,102177.83
2023-01-23T03:30:31.762Z,102176.74
2023-01-23T03:32:59.268Z,102180.67
2023-01-23T03:35:26.828Z,102183.72
2023-01-23T03:37:54.979Z,102183.74
2023-01-23T03:40:42.248Z,102192.67
2023-01-23T03:43:10.652Z,102197.26
2023-01-23T03:45:42.322Z,102198.35
2023-01-23T03:48:09.819Z,102201.75
2023-01-23T03:50:37.239Z,102206.52
2023-01-23T03:53:04.799Z,102207.78
2023-01-23T03:55:32.326Z,102207.24
2023-01-23T03:57:59.838Z,102211.11
2023-01-23T04:00:30.100Z,102212.19
2023-01-23T04:03:00.417Z,102210.20
2023-01-23T04:05:28.815Z,102214.07
2023-01-23T04:07:56.443Z,102215.53
2023-01-23T04:10:24.276Z,102211.52
2023-01-23T04:12:56.249Z,102213.61
2023-01-23T04:15:24.169Z,102212.71
2023-01-23T04:17:52.896Z,102207.88
2023-01-23T04:20:21.025Z,102206.77
2023-01-23T04:22:48.778Z,102212.88
2023-01-23T04:25:16.496Z,102213.33
2023-01-23T04:27:44.116Z,102216.73
2023-01-23T04:30:12.857Z,102213.63
2023-01-23T04:32:40.420Z,102214.90
2023-01-23T04:35:08.547Z,102219.48
2023-01-23T04:37:37.802Z,102220.36
2023-01-23T04:40:06.156Z,102223.79
2023-01-23T04:42:41.330Z,102224.33
2023-01-23T04:45:12.102Z,102229.23
2023-01-23T04:47:58.272Z,102228.34
2023-01-23T04:50:26.140Z,102226.77
2023-01-23T04:52:53.750Z,102225.66
2023-01-23T04:55:21.708Z,102231.39
2023-01-23T04:57:49.111Z,102227.20
2023-01-23T05:00:22.482Z,102232.02
2023-01-23T05:02:50.500Z,102234.55
2023-01-23T05:05:21.383Z,102232.27
2023-01-23T05:07:51.613Z,102233.52
2023-01-23T05:10:19.629Z,102232.87
2023-01-23T05:12:47.550Z,102237.63
2023-01-23T05:15:15.714Z,102242.52
2023-01-23T05:17:44.569Z,102243.42
2023-01-23T05:20:12.560Z,102246.34
2023-01-23T05:22:52.767Z,102249.41
2023-01-23T05:25:25.165Z,102254.29
2023-01-23T05:27:53.076Z,102256.73
2023-01-23T05:30:22.006Z,102260.02
2023-01-23T05:32:50.988Z,102260.96
2023-01-23T05:35:21.223Z,102260.65
2023-01-23T05:37:50.995Z,102259.16
2023-01-23T05:40:21.967Z,102265.86
2023-01-23T05:43:15.577Z,102269.55
2023-01-23T05:46:04.581Z,102267.85
2023-01-23T05:48:39.699Z,102270.17
2023-01-23T05:51:10.026Z,102270.90
2023-01-23T05:53:37.830Z,102267.13
2023-01-23T05:56:07.531Z,102264.74
2023-01-23T05:58:39.593Z,102270.05
2023-01-23T06:01:25.951Z,102276.02
2023-01-23T06:04:16.816Z,102276.74
2023-01-23T06:06:52.732Z,102281.90
2023-01-23T06:09:20.588Z,102283.10
2023-01-23T06:11:48.349Z,102283.15
2023-01-23T06:14:16.130Z,102282.39
2023-01-23T06:16:43.861Z,102281.45
2023-01-23T06:19:11.670Z,102283.52
2023-01-23T06:21:39.329Z,102286.98
2023-01-23T06:24:07.175Z,102283.88
2023-01-23T06:26:34.909Z,102287.14
2023-01-23T06:29:02.689Z,102289.40
2023-01-23T06:31:32.877Z,102291.58
2023-01-23T06:34:01.870Z,102291.41
2023-01-23T06:36:33.296Z,102292.20
2023-01-23T06:39:01.394Z,102292.84
2023-01-23T06:41:34.770Z,102295.54
2023-01-23T06:44:04.479Z,102296.95
2023-01-23T06:46:32.039Z,102295.64
2023-01-23T06:48:59.783Z,102301.52
2023-01-23T06:51:28.461Z,102299.05
2023-01-23T06:53:57.467Z,102303.66
2023-01-23T06:56:25.238Z,102304.83
2023-01-23T06:58:53.642Z,102304.67
2023-01-23T07:01:29.581Z,102306.96
2023-01-23T07:04:11.927Z,102310.00
2023-01-23T07:06:40.229Z,102310.60
2023-01-23T07:09:08.327Z,102313.30
2023-01-23T07:11:37.755Z,102315.45
2023-01-23T07:14:06.368Z,102314.13
2023-01-23T07:16:36.346Z,102317.16
2023-01-23T07:19:05.662Z,102319.30
2023-01-23T07:21:34.826Z,102317.39
2023-01-23T07:24:02.331Z,102320.67
2023-01-23T07:26:30.083Z,102323.42
2023-01-23T07:28:57.817Z,102324.04
2023-01-23T07:31:25.577Z,102326.91
2023-01-23T07:33:53.356Z,102327.00
2023-01-23T07:36:20.799Z,102326.63
2023-01-23T07:38:48.370Z,102327.50
2023-01-23T07:41:16.121Z,102332.30
2023-01-23T13:45:24.695Z,102368.11
2023-01-23T14:22:59.014Z,102356.98
2023-01-23T14:25:26.835Z,102355.77
2023-01-23T14:28:05.277Z,102356.29
2023-01-23T14:30:33.444Z,102350.34
2023-01-23T14:33:01.302Z,102350.05
2023-01-23T14:35:30.669Z,102349.73
2023-01-23T14:38:06.426Z,102352.73
2023-01-23T14:40:49.021Z,102352.77
2023-01-23T14:43:24.596Z,102357.34
2023-01-23T14:46:06.698Z,102358.48
2023-01-23T14:48:39.601Z,102363.58
2023-01-23T14:51:20.817Z,102361.83
2023-01-23T14:53:58.281Z,102360.88
2023-01-23T14:56:32.856Z,102361.00
2023-01-23T14:59:05.102Z,102358.61
2023-01-23T15:01:35.544Z,102356.89
2023-01-23T15:04:08.331Z,102356.94
2023-01-23T15:06:36.041Z,102359.08
2023-01-23T15:09:15.463Z,102358.51
2023-01-23T15:11:43.230Z,102359.95
2023-01-23T15:14:26.151Z,102362.86
2023-01-23T15:17:00.477Z,102366.69
2023-01-23T15:19:28.765Z,102367.33
2023-01-23T15:22:16.632Z,102369.60
2023-01-23T15:24:44.762Z,102371.53
2023-01-23T15:27:42.373Z,102370.02
2023-01-23T15:30:29.207Z,102370.06
2023-01-23T15:32:58.209Z,102374.89
2023-01-23T15:35:25.950Z,102379.36
2023-01-23T15:37:56.585Z,102380.48
2023-01-23T15:40:28.860Z,102376.27
2023-01-23T15:43:11.359Z,102374.05
2023-01-23T15:45:40.422Z,102374.95
2023-01-23T15:48:10.403Z,102375.59
2023-01-23T15:50:39.471Z,102379.94
2023-01-23T15:53:14.691Z,102378.70
2023-01-23T15:55:43.858Z,102384.77
2023-01-23T15:58:15.819Z,102380.27
2023-01-23T19:52:55.908Z,102411.40
2023-01-23T19:55:28.667Z,102417.06
2023-01-23T19:57:58.152Z,102406.92
2023-01-23T20:00:28.308Z,102400.75
2023-01-23T20:02:57.934Z,102395.40
2023-01-23T20:05:27.314Z,102393.46
2023-01-23T20:07:56.293Z,102391.27
2023-01-23T20:10:25.103Z,102386.34
2023-01-23T20:12:55.607Z,102387.75
2023-01-23T20:15:25.741Z,102387.65
2023-01-23T20:17:56.084Z,102389.94
2023-01-23T20:20:25.058Z,102386.48
2023-01-23T20:22:54.181Z,102389.32
2023-01-23T20:25:23.521Z,102392.29
2023-01-23T20:27:52.744Z,102395.65
2023-01-23T20:30:22.642Z,102394.84
2023-01-23T20:32:51.724Z,102394.20
2023-01-23T20:35:21.226Z,102388.06
2023-01-23T20:37:50.290Z,102392.36
2023-01-23T20:40:19.158Z,102394.06
2023-01-23T20:42:48.174Z,102393.81
2023-01-23T20:45:17.041Z,102395.30
2023-01-23T20:47:48.038Z,102397.43
2023-01-23T20:50:17.272Z,102398.89
2023-01-23T20:53:04.739Z,102397.19
2023-01-23T20:55:34.922Z,102396.80
2023-01-23T20:58:23.324Z,102391.12
2023-01-23T21:00:52.492Z,102388.73
2023-01-23T21:03:22.651Z,102388.77
2023-01-23T21:05:51.509Z,102385.53
2023-01-23T21:08:21.462Z,102384.83
2023-01-23T21:10:53.418Z,102384.23
2023-01-23T21:13:23.711Z,102383.81
2023-01-23T21:16:03.894Z,102379.51
2023-01-23T21:18:36.715Z,102377.10
2023-01-23T21:21:06.717Z,102377.15
2023-01-23T21:23:35.951Z,102377.34
2023-01-23T21:26:06.613Z,102376.88
2023-01-23T21:28:36.986Z,102381.05
2023-01-23T21:31:15.444Z,102378.70
2023-01-23T21:33:45.323Z,102379.48
2023-01-23T21:36:16.088Z,102379.54
2023-01-23T21:38:45.717Z,102379.30
2023-01-23T21:41:17.210Z,102382.83
2023-01-23T21:43:45.995Z,102382.42
2023-01-23T21:46:15.096Z,102382.94
2023-01-23T21:48:46.671Z,102384.09
2023-01-23T21:51:17.262Z,102380.19
2023-01-23T21:53:47.027Z,102380.75
2023-01-23T21:56:17.951Z,102378.88
2023-01-23T21:58:47.735Z,102376.88
2023-01-23T22:01:34.001Z,102372.17
2023-01-23T22:04:06.612Z,102379.20
2023-01-23T22:06:36.688Z,102375.70
2023-01-23T22:09:06.077Z,102372.08
2023-01-23T22:11:35.822Z,102373.77
2023-01-23T22:14:05.309Z,102374.76
2023-01-23T22:16:50.934Z,102374.60
2023-01-23T22:19:24.889Z,102373.77
2023-01-23T22:21:55.568Z,102374.18
2023-01-23T22:24:24.827Z,102378.13
2023-01-23T22:26:54.185Z,102374.13
2023-01-23T22:29:23.577Z,102375.81
2023-01-23T22:31:53.202Z,102376.65
2023-01-23T22:34:22.752Z,102378.31
2023-01-23T22:36:51.493Z,102374.05
2023-01-23T22:39:20.778Z,102368.64
2023-01-23T22:41:53.312Z,102370.80
2023-01-23T22:44:25.293Z,102369.81
2023-01-23T22:46:54.468Z,102374.55
2023-01-23T22:49:23.461Z,102373.92
2023-01-23T22:51:52.437Z,102374.82
2023-01-23T22:54:21.278Z,102369.02
2023-01-23T22:56:50.552Z,102370.11
2023-01-23T22:59:21.488Z,102369.80
2023-01-23T23:01:50.749Z,102375.88
2023-01-23T23:04:19.833Z,102373.70
2023-01-23T23:06:49.271Z,102382.43
2023-01-23T23:09:18.872Z,102377.31
2023-01-23T23:11:50.591Z,102381.64
2023-01-23T23:14:19.585Z,102383.58
2023-01-23T23:16:48.339Z,102383.02
2023-01-23T23:19:17.139Z,102381.81
2023-01-23T23:21:49.429Z,102382.27
2023-01-23T23:24:18.349Z,102383.82
2023-01-23T23:26:48.850Z,102382.16
2023-01-23T23:29:17.645Z,102388.77
2023-01-23T23:31:47.452Z,102391.31
2023-01-23T23:34:16.607Z,102391.16
2023-01-23T23:36:46.667Z,102391.46
2023-01-23T23:39:15.699Z,102394.55
2023-01-23T23:41:44.725Z,102389.57
2023-01-23T23:44:13.964Z,102387.58
2023-01-23T23:46:43.597Z,102389.30
2023-01-23T23:49:12.438Z,102385.02
2023-01-23T23:51:43.324Z,102384.74
2023-01-23T23:54:12.390Z,102385.16
2023-01-23T23:56:41.172Z,102384.44
2023-01-23T23:59:16.296Z,102383.12
